createdAt,value
2022-12-17T00:02:57.758Z,17.67
2022-12-17T00:08:21.068Z,12.90
2022-12-17T00:13:44.933Z,14.70
2022-12-17T00:19:09.049Z,19.57
2022-12-17T00:24:37.547Z,18.37
2022-12-17T00:29:59.737Z,17.07
2022-12-17T00:35:20.307Z,17.07
2022-12-17T00:40:40.851Z,18.97
2022-12-17T00:46:05.275Z,20.77
2022-12-17T00:51:25.708Z,16.00
2022-12-17T00:56:47.283Z,18.67
2022-12-17T01:02:09.491Z,19.70
2022-12-17T01:07:30.545Z,17.00
2022-12-17T01:12:51.124Z,20.30
2022-12-17T01:18:15.024Z,17.43
2022-12-17T01:23:36.318Z,16.73
2022-12-17T01:28:57.155Z,19.63
2022-12-17T01:34:19.081Z,17.23
2022-12-17T01:39:41.513Z,17.37
2022-12-17T01:45:08.471Z,20.33
2022-12-17T01:50:28.284Z,14.80
2022-12-17T01:55:49.364Z,18.43
2022-12-17T02:01:21.526Z,17.47
2022-12-17T02:06:45.933Z,19.73
2022-12-17T02:12:15.073Z,17.53
2022-12-17T02:17:44.964Z,19.23
2022-12-17T02:23:18.934Z,22.33
2022-12-17T02:28:41.591Z,21.33
2022-12-17T02:34:05.281Z,18.83
2022-12-17T02:39:38.804Z,17.63
2022-12-17T02:45:02.294Z,15.07
2022-12-17T02:50:26.968Z,14.90
2022-12-17T02:55:47.617Z,15.53
2022-12-17T03:01:09.890Z,18.57
2022-12-17T03:06:30.948Z,18.80
2022-12-17T03:11:53.630Z,16.47
2022-12-17T03:17:15.533Z,15.63
2022-12-17T03:22:36.245Z,19.23
2022-12-17T03:27:56.650Z,17.90
2022-12-17T03:33:18.839Z,15.93
2022-12-17T03:38:39.469Z,15.13
2022-12-17T03:44:14.814Z,16.30
2022-12-17T03:49:37.158Z,13.83
2022-12-17T03:54:57.680Z,14.57
2022-12-17T04:00:18.490Z,14.70
2022-12-17T04:05:40.847Z,16.00
2022-12-17T04:11:01.475Z,15.57
2022-12-17T04:16:22.403Z,16.67
2022-12-17T04:21:46.405Z,17.37
2022-12-17T04:27:06.985Z,15.53
2022-12-17T04:32:32.319Z,17.30
2022-12-17T04:37:57.056Z,16.97
2022-12-17T04:43:25.185Z,14.97
2022-12-17T04:48:47.303Z,16.30
2022-12-17T04:54:09.584Z,17.07
2022-12-17T04:59:30.286Z,13.47
2022-12-17T05:04:51.064Z,16.73
2022-12-17T05:10:13.058Z,18.20
2022-12-17T05:15:33.943Z,15.50
2022-12-17T05:20:54.421Z,14.23
2022-12-17T05:26:23.307Z,14.90
2022-12-17T05:31:43.893Z,15.70
2022-12-17T05:37:04.505Z,11.17
2022-12-17T05:42:26.519Z,16.87
2022-12-17T05:47:46.986Z,15.43
2022-12-17T05:53:07.562Z,15.93
2022-12-17T05:58:30.310Z,15.40
2022-12-17T06:03:51.089Z,16.33
2022-12-17T06:09:11.768Z,17.97
2022-12-17T06:14:33.679Z,19.80
2022-12-17T06:19:54.613Z,15.40
2022-12-17T06:25:15.603Z,15.43
2022-12-17T06:30:37.558Z,17.70
2022-12-17T06:35:57.901Z,17.13
2022-12-17T06:41:19.583Z,17.87
2022-12-17T06:46:42.231Z,15.67
2022-12-17T06:52:03.599Z,16.10
2022-12-17T06:57:28.825Z,17.50
2022-12-17T07:02:53.735Z,16.47
2022-12-17T07:08:17.722Z,16.83
2022-12-17T07:13:38.983Z,17.53
2022-12-17T07:19:01.292Z,19.33
2022-12-17T07:24:22.396Z,15.93
2022-12-17T07:29:43.259Z,17.67
2022-12-17T07:35:05.276Z,16.13
2022-12-17T07:40:42.206Z,18.53
2022-12-17T07:46:02.949Z,17.33
2022-12-17T07:51:25.419Z,15.80
2022-12-17T07:56:46.401Z,19.17
2022-12-17T08:02:08.827Z,18.50
2022-12-17T08:07:31.682Z,18.03
2022-12-17T08:12:52.693Z,18.83
2022-12-17T08:18:22.983Z,17.20
2022-12-17T08:23:48.584Z,17.97
2022-12-17T08:29:09.364Z,18.23
2022-12-17T08:34:30.707Z,18.53
2022-12-17T08:39:52.566Z,18.93
2022-12-17T08:45:16.154Z,16.60
2022-12-17T08:50:37.158Z,15.83
2022-12-17T08:55:59.109Z,15.77
2022-12-17T09:01:20.554Z,16.07
2022-12-17T09:06:41.363Z,17.97
2022-12-17T09:12:03.773Z,16.97
2022-12-17T09:17:24.309Z,18.10
2022-12-17T09:22:45.440Z,15.33
2022-12-17T09:28:07.680Z,17.97
2022-12-17T09:33:33.773Z,17.10
2022-12-17T09:38:54.574Z,19.60
2022-12-17T09:44:23.335Z,13.77
2022-12-17T09:49:46.979Z,14.87
2022-12-17T09:55:10.173Z,14.27
2022-12-17T10:00:36.712Z,15.37
2022-12-17T10:05:59.667Z,16.63
2022-12-17T10:11:34.494Z,16.83
2022-12-17T10:17:05.859Z,14.63
2022-12-17T10:22:32.458Z,15.00
2022-12-17T10:27:52.305Z,14.20
2022-12-17T10:33:16.095Z,15.50
2022-12-17T10:38:41.283Z,15.03
2022-12-17T10:44:02.132Z,16.37
2022-12-17T10:49:28.946Z,19.80
2022-12-17T10:54:54.058Z,18.80
2022-12-17T11:00:15.126Z,14.20
2022-12-17T11:05:44.345Z,17.60
2022-12-17T11:11:05.961Z,16.00
2022-12-17T11:16:35.240Z,14.53
2022-12-17T11:22:01.388Z,14.03
2022-12-17T11:27:39.090Z,14.60
2022-12-17T11:33:22.727Z,14.47
2022-12-17T11:38:52.469Z,13.17
2022-12-17T11:44:27.010Z,12.37
2022-12-17T11:49:55.400Z,15.23
2022-12-17T11:55:29.997Z,14.03
2022-12-17T12:00:58.185Z,16.60
2022-12-17T12:06:21.838Z,11.73
2022-12-17T12:11:51.142Z,13.33
2022-12-17T12:17:21.684Z,15.23
2022-12-17T12:22:50.069Z,13.67
2022-12-17T12:28:21.108Z,13.57
2022-12-17T12:33:50.682Z,15.70
2022-12-17T12:39:14.780Z,13.57
2022-12-17T12:44:56.387Z,13.07
2022-12-17T12:50:27.237Z,12.40
2022-12-17T12:55:57.014Z,12.50
2022-12-17T13:01:19.205Z,14.90
2022-12-17T13:06:46.308Z,12.23
2022-12-17T13:11:52.290Z,10.87
2022-12-17T13:17:03.602Z,12.83
2022-12-17T13:22:27.943Z,15.77
2022-12-17T13:27:32.228Z,16.30
2022-12-17T13:32:46.852Z,12.13
2022-12-17T13:38:01.105Z,12.47
2022-12-17T13:43:04.644Z,13.23
2022-12-17T13:48:22.031Z,12.47
2022-12-17T13:53:25.583Z,13.43
2022-12-17T13:58:30.982Z,12.53
2022-12-17T14:04:04.380Z,12.30
2022-12-17T14:09:00.039Z,15.77
2022-12-17T14:14:04.254Z,15.80
2022-12-17T14:19:11.857Z,14.97
2022-12-17T14:24:16.157Z,12.10
2022-12-17T14:29:25.286Z,17.07
2022-12-17T14:34:31.032Z,14.90
2022-12-17T14:39:35.209Z,13.57
2022-12-17T14:44:50.546Z,15.93
2022-12-17T14:50:01.839Z,15.13
2022-12-17T14:55:41.275Z,16.43
2022-12-17T15:00:47.267Z,17.30
2022-12-17T15:05:54.731Z,17.10
2022-12-17T15:10:59.545Z,15.23
2022-12-17T15:16:03.333Z,18.57
2022-12-17T15:21:08.303Z,16.27
2022-12-17T15:26:14.017Z,14.13
2022-12-17T15:31:23.135Z,16.17
2022-12-17T15:36:29.977Z,18.23
2022-12-17T15:41:51.277Z,17.70
2022-12-17T15:46:54.831Z,15.67
2022-12-17T15:52:00.902Z,18.10
2022-12-17T15:57:04.433Z,13.83
2022-12-17T16:02:09.150Z,12.87
2022-12-17T16:07:14.271Z,12.60
2022-12-17T16:12:18.659Z,12.63
2022-12-17T16:17:22.736Z,9.67
2022-12-17T16:22:28.433Z,11.03
2022-12-17T16:27:32.204Z,8.50
2022-12-17T16:32:36.907Z,9.40
2022-12-17T16:37:42.169Z,9.23
2022-12-17T16:42:46.029Z,8.70
2022-12-17T16:47:50.783Z,8.10
2022-12-17T16:53:01.071Z,8.80
2022-12-17T16:58:04.475Z,7.63
2022-12-17T17:03:09.520Z,8.73
2022-12-17T17:08:15.921Z,7.77
2022-12-17T17:13:19.594Z,9.27
2022-12-17T17:18:24.887Z,9.23
2022-12-17T17:23:32.846Z,8.63
2022-12-17T17:28:36.666Z,10.07
2022-12-17T17:33:43.243Z,8.40
2022-12-17T17:38:49.422Z,9.13
2022-12-17T17:43:55.183Z,8.53
2022-12-17T17:49:00.577Z,7.70
2022-12-17T17:54:10.988Z,6.17
2022-12-17T17:59:19.764Z,7.80
2022-12-17T18:04:24.379Z,8.37
2022-12-17T18:09:29.793Z,8.97
2022-12-17T18:14:37.734Z,8.00
2022-12-17T18:19:48.819Z,8.73
2022-12-17T18:24:53.623Z,8.47
2022-12-17T18:29:57.108Z,7.53
2022-12-17T18:35:01.218Z,8.13
2022-12-17T18:40:07.684Z,7.30
2022-12-17T18:45:14.359Z,7.60
2022-12-17T18:50:19.264Z,8.37
2022-12-17T18:55:25.719Z,8.87
2022-12-17T19:00:29.155Z,7.63
2022-12-17T19:05:32.808Z,17.02
2022-12-17T19:10:40.082Z,11.20
2022-12-17T19:15:44.787Z,8.63
2022-12-17T19:20:50.165Z,8.10
2022-12-17T19:25:55.345Z,8.30
2022-12-17T19:31:00.775Z,8.97
2022-12-17T19:36:08.730Z,7.40
2022-12-17T19:41:15.728Z,4.97
2022-12-17T19:46:20.942Z,5.97
2022-12-17T19:51:26.217Z,7.20
2022-12-17T19:56:33.454Z,6.07
2022-12-17T20:01:40.889Z,5.33
2022-12-17T20:06:46.715Z,5.60
2022-12-17T20:11:51.533Z,5.20
2022-12-17T20:16:58.487Z,4.13
2022-12-17T20:22:04.651Z,3.93
2022-12-17T20:27:11.456Z,4.80
2022-12-17T20:32:19.550Z,5.67
2022-12-17T20:37:23.894Z,5.27
2022-12-17T20:42:29.362Z,5.83
2022-12-17T20:47:33.165Z,5.70
2022-12-17T20:52:36.823Z,4.03
2022-12-17T20:57:42.444Z,4.90
2022-12-17T21:02:46.158Z,5.30
2022-12-17T21:07:51.618Z,4.33
2022-12-17T21:13:13.965Z,4.50
2022-12-17T21:18:17.306Z,3.67
2022-12-17T21:23:22.595Z,5.57
2022-12-17T21:28:29.077Z,4.97
2022-12-17T21:33:33.780Z,4.87
2022-12-17T21:38:37.908Z,4.03
2022-12-17T21:43:43.032Z,4.03
2022-12-17T21:48:46.840Z,4.70
2022-12-17T21:53:54.682Z,3.70
2022-12-17T21:59:00.673Z,4.00
2022-12-17T22:04:05.746Z,3.50
2022-12-17T22:09:18.794Z,4.27
2022-12-17T22:14:33.873Z,3.40
2022-12-17T22:19:37.177Z,5.47
2022-12-17T22:24:40.475Z,3.10
2022-12-17T22:30:17.200Z,3.50
2022-12-17T22:38:04.261Z,3.10
2022-12-17T22:44:04.261Z,3.13
2022-12-17T22:46:08.771Z,3.10
2022-12-17T22:51:20.244Z,3.63
2022-12-17T22:57:04.668Z,4.43
2022-12-17T23:01:55.486Z,3.57
2022-12-17T23:06:58.833Z,3.93
2022-12-17T23:12:22.531Z,4.27
2022-12-17T23:17:27.224Z,4.33
2022-12-17T23:22:31.159Z,3.90
2022-12-17T23:27:34.611Z,3.43
2022-12-17T23:32:39.465Z,2.50
2022-12-17T23:37:43.398Z,3.30
2022-12-17T23:42:46.860Z,4.60
2022-12-17T23:47:51.536Z,4.00
2022-12-17T23:52:55.840Z,4.50
2022-12-17T23:58:00.538Z,3.83
